createdAt,value
2019-03-19T00:00:55.741Z,16.50
2019-03-19T00:01:58.974Z,16.00
2019-03-19T00:03:01.990Z,17.50
2019-03-19T00:04:05.210Z,14.00
2019-03-19T00:05:08.076Z,17.50
2019-03-19T00:06:10.898Z,13.50
2019-03-19T00:07:14.459Z,18.00
2019-03-19T00:08:17.348Z,14.50
2019-03-19T00:09:20.183Z,12.00
2019-03-19T00:10:25.321Z,14.50
2019-03-19T00:11:28.163Z,12.00
2019-03-19T00:12:30.980Z,12.50
2019-03-19T00:13:34.152Z,15.50
2019-03-19T00:14:36.974Z,16.00
2019-03-19T00:15:39.791Z,16.50
2019-03-19T00:16:42.623Z,18.00
2019-03-19T00:17:45.558Z,14.00
2019-03-19T00:18:48.382Z,16.50
2019-03-19T00:19:53.071Z,15.00
2019-03-19T00:20:55.885Z,17.00
2019-03-19T00:21:58.764Z,14.00
2019-03-19T00:23:01.767Z,14.00
2019-03-19T00:24:04.640Z,13.00
2019-03-19T00:25:07.437Z,16.50
2019-03-19T00:26:10.561Z,14.00
2019-03-19T00:27:13.382Z,11.50
2019-03-19T00:28:16.699Z,15.00
2019-03-19T00:29:19.720Z,10.50
2019-03-19T00:30:22.558Z,10.00
2019-03-19T00:31:26.410Z,12.00
2019-03-19T00:32:29.906Z,14.00
2019-03-19T00:33:32.822Z,13.50
2019-03-19T00:34:36.075Z,13.00
2019-03-19T00:35:38.980Z,13.50
2019-03-19T00:36:41.836Z,15.00
2019-03-19T00:37:44.647Z,16.00
2019-03-19T00:38:47.772Z,15.00
2019-03-19T00:39:50.686Z,10.50
2019-03-19T00:40:53.541Z,15.00
2019-03-19T00:41:58.005Z,13.00
2019-03-19T00:43:00.811Z,12.00
2019-03-19T00:44:03.649Z,16.50
2019-03-19T00:45:07.139Z,13.00
2019-03-19T00:46:09.939Z,12.00
2019-03-19T00:47:12.838Z,14.00
2019-03-19T00:48:15.656Z,16.00
2019-03-19T00:49:18.485Z,17.50
2019-03-19T00:50:22.304Z,16.50
2019-03-19T00:51:25.413Z,17.00
2019-03-19T00:52:28.290Z,15.50
2019-03-19T00:53:31.109Z,16.50
2019-03-19T00:54:34.021Z,14.00
2019-03-19T00:55:40.965Z,16.50
2019-03-19T00:56:41.735Z,14.50
2019-03-19T00:57:44.865Z,14.00
2019-03-19T00:58:47.781Z,11.00
2019-03-19T00:59:52.829Z,15.00
2019-03-19T01:00:55.633Z,15.00
2019-03-19T01:01:58.513Z,16.00
2019-03-19T01:03:01.399Z,12.00
2019-03-19T01:04:04.873Z,15.50
2019-03-19T01:05:07.702Z,14.50
2019-03-19T01:06:10.528Z,12.50
2019-03-19T01:07:13.403Z,12.00
2019-03-19T01:08:16.577Z,15.00
2019-03-19T01:09:19.755Z,11.00
2019-03-19T01:10:22.865Z,14.50
2019-03-19T01:11:26.767Z,14.50
2019-03-19T01:12:29.583Z,14.00
2019-03-19T01:13:32.524Z,15.50
2019-03-19T01:14:35.398Z,13.50
2019-03-19T01:15:38.225Z,15.50
2019-03-19T01:16:41.113Z,15.50
2019-03-19T01:17:44.288Z,18.00
2019-03-19T01:18:47.223Z,14.00
2019-03-19T01:19:50.467Z,14.00
2019-03-19T01:20:53.309Z,13.50
2019-03-19T01:21:56.133Z,14.00
2019-03-19T01:22:59.276Z,12.00
2019-03-19T01:24:02.185Z,16.00
2019-03-19T01:25:05.001Z,12.00
2019-03-19T01:26:08.282Z,13.00
2019-03-19T01:27:11.201Z,12.50
2019-03-19T01:28:14.103Z,14.00
2019-03-19T01:29:17.296Z,14.50
2019-03-19T01:30:20.127Z,13.50
2019-03-19T01:31:22.972Z,13.00
2019-03-19T01:32:26.156Z,12.50
2019-03-19T01:33:29.068Z,15.50
2019-03-19T01:34:31.943Z,14.00
2019-03-19T01:35:35.077Z,10.50
2019-03-19T01:36:40.931Z,15.50
2019-03-19T01:37:44.153Z,12.00
2019-03-19T01:38:47.106Z,13.50
2019-03-19T01:39:50.372Z,11.00
2019-03-19T01:40:53.267Z,14.00
2019-03-19T01:41:56.367Z,10.50
2019-03-19T01:42:59.260Z,12.00
2019-03-19T01:44:02.163Z,12.00
2019-03-19T01:45:06.546Z,11.50
2019-03-19T01:46:09.395Z,10.00
2019-03-19T01:47:12.218Z,8.50
2019-03-19T01:48:15.369Z,10.00
2019-03-19T01:49:18.187Z,8.00
2019-03-19T01:50:21.108Z,9.50
2019-03-19T01:51:23.948Z,12.00
2019-03-19T01:52:26.881Z,12.00
2019-03-19T01:53:32.249Z,10.00
2019-03-19T01:54:38.396Z,10.50
2019-03-19T01:55:41.217Z,8.50
2019-03-19T01:56:44.164Z,10.50
2019-03-19T01:57:47.005Z,10.00
2019-03-19T01:58:51.093Z,12.00
2019-03-19T01:59:54.443Z,8.00
2019-03-19T02:00:57.588Z,10.00
2019-03-19T02:02:00.403Z,12.50
2019-03-19T02:03:03.300Z,10.50
2019-03-19T02:04:06.121Z,13.00
2019-03-19T02:05:09.002Z,11.50
2019-03-19T02:06:11.852Z,14.00
2019-03-19T02:07:15.041Z,9.50
2019-03-19T02:08:17.844Z,13.50
2019-03-19T02:09:20.660Z,10.00
2019-03-19T02:10:23.506Z,11.00
2019-03-19T02:11:26.314Z,11.00
2019-03-19T02:12:29.183Z,12.00
2019-03-19T02:13:32.291Z,12.00
2019-03-19T02:14:35.540Z,11.50
2019-03-19T02:15:38.460Z,11.00
2019-03-19T02:16:41.273Z,11.50
2019-03-19T02:17:44.111Z,10.00
2019-03-19T02:18:47.364Z,9.50
2019-03-19T02:19:50.462Z,11.00
2019-03-19T02:20:53.795Z,10.00
2019-03-19T02:21:56.668Z,14.00
2019-03-19T02:22:59.536Z,16.00
2019-03-19T02:24:02.705Z,15.00
2019-03-19T02:25:05.528Z,11.50
2019-03-19T02:26:16.320Z,13.50
2019-03-19T02:27:13.292Z,16.00
2019-03-19T02:28:16.113Z,13.50
2019-03-19T02:29:19.424Z,14.50
2019-03-19T02:30:22.245Z,13.00
2019-03-19T02:31:25.963Z,12.00
2019-03-19T02:32:29.084Z,11.50
2019-03-19T02:33:32.041Z,14.00
2019-03-19T02:34:35.238Z,16.50
2019-03-19T02:35:38.444Z,14.00
2019-03-19T02:36:41.276Z,14.00
2019-03-19T02:37:44.110Z,14.00
2019-03-19T02:38:47.287Z,14.00
2019-03-19T02:39:50.138Z,14.00
2019-03-19T02:40:52.963Z,13.50
2019-03-19T02:41:55.805Z,11.00
2019-03-19T02:42:59.254Z,14.50
2019-03-19T02:44:02.199Z,16.00
2019-03-19T02:45:05.005Z,14.00
2019-03-19T02:46:08.201Z,12.00
2019-03-19T02:47:11.367Z,17.00
2019-03-19T02:48:14.206Z,13.00
2019-03-19T02:49:17.125Z,10.50
2019-03-19T02:50:20.267Z,13.50
2019-03-19T02:51:23.088Z,10.50
2019-03-19T02:52:25.941Z,14.00
2019-03-19T02:53:29.712Z,12.50
2019-03-19T02:54:33.089Z,14.00
2019-03-19T02:55:35.962Z,12.50
2019-03-19T02:56:39.128Z,11.50
2019-03-19T02:57:42.363Z,14.00
2019-03-19T02:58:45.644Z,13.00
2019-03-19T02:59:49.347Z,11.50
2019-03-19T03:00:52.173Z,14.00
2019-03-19T03:01:54.964Z,13.50
2019-03-19T03:02:58.086Z,13.00
2019-03-19T03:04:00.909Z,14.00
2019-03-19T03:05:04.204Z,12.00
2019-03-19T03:06:07.026Z,14.00
2019-03-19T03:07:09.849Z,12.50
2019-03-19T03:08:12.689Z,16.50
2019-03-19T03:09:15.823Z,13.00
2019-03-19T03:10:18.715Z,16.00
2019-03-19T03:11:21.609Z,13.00
2019-03-19T03:12:24.481Z,10.00
2019-03-19T03:13:27.327Z,13.00
2019-03-19T03:14:30.168Z,11.50
2019-03-19T03:15:33.315Z,14.00
2019-03-19T03:16:36.220Z,17.00
2019-03-19T03:17:39.042Z,14.50
2019-03-19T03:18:41.892Z,15.00
2019-03-19T03:19:44.694Z,12.50
2019-03-19T03:20:47.861Z,14.00
2019-03-19T03:21:51.065Z,16.50
2019-03-19T03:22:53.900Z,14.50
2019-03-19T03:23:56.757Z,17.00
2019-03-19T03:24:59.959Z,16.00
2019-03-19T03:26:02.876Z,14.00
2019-03-19T03:27:05.804Z,20.00
2019-03-19T03:28:08.931Z,16.50
2019-03-19T03:29:11.707Z,17.00
2019-03-19T03:30:14.574Z,21.50
2019-03-19T03:31:17.472Z,17.50
2019-03-19T03:32:20.814Z,20.00
2019-03-19T03:33:24.084Z,19.00
2019-03-19T03:34:27.399Z,18.00
2019-03-19T03:35:30.270Z,20.00
2019-03-19T03:36:33.111Z,18.50
2019-03-19T03:37:38.288Z,20.00
2019-03-19T03:38:41.153Z,19.00
2019-03-19T03:39:44.623Z,16.00
2019-03-19T03:40:47.459Z,19.00
2019-03-19T03:41:50.294Z,15.50
2019-03-19T03:42:53.196Z,16.00
2019-03-19T03:43:56.005Z,16.00
2019-03-19T03:44:58.838Z,15.50
2019-03-19T03:46:01.646Z,16.00
2019-03-19T03:47:04.467Z,10.00
2019-03-19T03:48:07.846Z,12.50
2019-03-19T03:49:10.669Z,12.50
2019-03-19T03:50:13.535Z,11.00
2019-03-19T03:51:19.512Z,14.00
2019-03-19T03:52:23.104Z,13.00
2019-03-19T03:53:25.980Z,13.50
2019-03-19T03:54:29.721Z,10.00
2019-03-19T03:55:33.661Z,10.00
2019-03-19T03:56:38.034Z,10.00
2019-03-19T03:57:43.970Z,11.50
2019-03-19T03:58:59.880Z,10.00
2019-03-19T03:59:54.466Z,12.00
2019-03-19T04:00:57.384Z,15.00
2019-03-19T04:02:00.211Z,12.00
2019-03-19T04:03:03.123Z,14.00
2019-03-19T04:04:08.391Z,12.00
2019-03-19T04:05:11.507Z,10.00
2019-03-19T04:06:14.446Z,10.50
2019-03-19T04:07:17.290Z,10.00
2019-03-19T04:08:20.490Z,13.00
2019-03-19T04:09:23.347Z,13.00
2019-03-19T04:10:26.252Z,11.00
2019-03-19T04:11:29.364Z,12.00
2019-03-19T04:12:32.199Z,10.00
2019-03-19T04:13:34.997Z,12.00
2019-03-19T04:14:37.916Z,10.00
2019-03-19T04:15:40.763Z,10.50
2019-03-19T04:16:44.438Z,10.00
2019-03-19T04:17:47.995Z,8.00
2019-03-19T04:18:51.096Z,12.00
2019-03-19T04:19:54.353Z,10.00
2019-03-19T04:21:00.450Z,8.50
2019-03-19T04:22:03.969Z,11.50
2019-03-19T04:23:07.103Z,8.00
2019-03-19T04:24:10.214Z,11.50
2019-03-19T04:25:13.366Z,12.00
2019-03-19T04:26:16.261Z,10.50
2019-03-19T04:27:19.523Z,10.00
2019-03-19T04:28:22.435Z,12.00
2019-03-19T04:29:25.323Z,12.50
2019-03-19T04:30:28.509Z,14.00
2019-03-19T04:31:31.703Z,11.50
2019-03-19T04:32:34.594Z,12.50
2019-03-19T04:33:37.463Z,15.50
2019-03-19T04:34:40.304Z,14.50
2019-03-19T04:35:43.220Z,13.50
2019-03-19T04:36:47.952Z,14.50
2019-03-19T04:37:50.971Z,13.50
2019-03-19T04:38:53.875Z,12.50
2019-03-19T04:39:56.772Z,12.00
2019-03-19T04:40:59.623Z,16.50
2019-03-19T04:42:02.466Z,13.50
2019-03-19T04:43:05.651Z,17.00
2019-03-19T04:44:08.970Z,17.50
2019-03-19T04:45:11.809Z,19.00
2019-03-19T04:46:15.014Z,15.50
2019-03-19T04:47:18.272Z,14.00
2019-03-19T04:48:27.081Z,15.00
2019-03-19T04:49:29.918Z,9.50
2019-03-19T04:50:33.117Z,12.00
2019-03-19T04:51:37.890Z,10.00
2019-03-19T04:52:44.165Z,7.00
2019-03-19T04:53:47.426Z,10.00
2019-03-19T04:54:50.573Z,8.00
2019-03-19T04:55:53.410Z,11.50
2019-03-19T04:56:56.357Z,14.00
2019-03-19T04:57:59.538Z,12.00
2019-03-19T04:59:02.343Z,16.00
2019-03-19T05:00:05.199Z,14.50
2019-03-19T05:01:08.383Z,16.00
2019-03-19T05:02:11.318Z,14.00
2019-03-19T05:03:14.121Z,15.00
2019-03-19T05:04:16.941Z,14.00
2019-03-19T05:05:19.758Z,14.00
2019-03-19T05:06:22.576Z,12.50
2019-03-19T05:07:27.481Z,13.00
2019-03-19T05:08:30.656Z,11.00
2019-03-19T05:09:33.517Z,12.50
2019-03-19T05:10:36.699Z,13.00
2019-03-19T05:11:39.591Z,10.50
2019-03-19T05:12:42.790Z,17.50
2019-03-19T05:13:46.438Z,14.50
2019-03-19T05:14:49.279Z,14.00
2019-03-19T05:15:52.143Z,12.00
2019-03-19T05:16:55.399Z,13.50
2019-03-19T05:17:58.246Z,11.00
2019-03-19T05:19:01.483Z,14.50
2019-03-19T05:20:04.627Z,13.00
2019-03-19T05:21:07.459Z,14.00
2019-03-19T05:22:10.314Z,13.00
2019-03-19T05:23:13.908Z,13.00
2019-03-19T05:24:18.180Z,12.00
2019-03-19T05:25:22.242Z,12.50
2019-03-19T05:26:30.347Z,16.00
2019-03-19T05:27:40.568Z,11.50
2019-03-19T05:28:46.502Z,10.50
2019-03-19T05:29:50.985Z,11.50
2019-03-19T05:30:53.803Z,11.50
2019-03-19T05:31:56.650Z,12.00
2019-03-19T05:33:02.467Z,12.00
2019-03-19T05:34:05.336Z,12.50
2019-03-19T05:35:08.413Z,15.50
2019-03-19T05:36:11.379Z,14.00
2019-03-19T05:37:14.204Z,10.50
2019-03-19T05:38:17.109Z,12.00
2019-03-19T05:39:20.258Z,13.00
2019-03-19T05:40:23.181Z,11.00
2019-03-19T05:41:26.476Z,13.00
2019-03-19T05:42:29.736Z,12.00
2019-03-19T05:43:32.599Z,13.00
2019-03-19T05:44:35.456Z,12.00
2019-03-19T05:45:38.927Z,17.50
2019-03-19T05:46:41.757Z,13.00
2019-03-19T05:47:45.016Z,13.50
2019-03-19T05:48:48.224Z,15.00
2019-03-19T05:49:51.068Z,11.00
2019-03-19T05:50:57.079Z,12.00
2019-03-19T05:52:00.293Z,11.50
2019-03-19T05:53:04.296Z,10.50
2019-03-19T05:54:07.109Z,9.50
2019-03-19T05:55:09.924Z,11.50
2019-03-19T05:56:13.121Z,12.00
2019-03-19T05:57:17.838Z,14.00
2019-03-19T05:58:21.422Z,13.00
2019-03-19T05:59:24.340Z,16.00
2019-03-19T06:00:29.424Z,16.00
2019-03-19T06:01:34.767Z,15.50
2019-03-19T06:02:37.586Z,13.50
2019-03-19T06:03:40.488Z,16.00
2019-03-19T06:04:44.094Z,16.50
2019-03-19T06:05:46.920Z,21.00
2019-03-19T06:06:49.750Z,15.00
2019-03-19T06:07:52.661Z,15.50
2019-03-19T06:08:55.552Z,20.50
2019-03-19T06:10:02.102Z,18.00
2019-03-19T06:11:06.867Z,19.50
2019-03-19T06:12:10.191Z,16.50
2019-03-19T06:13:13.071Z,23.00
2019-03-19T06:14:15.956Z,14.00
2019-03-19T06:15:18.783Z,12.50
2019-03-19T06:16:21.620Z,20.00
2019-03-19T06:17:24.874Z,14.00
2019-03-19T06:18:35.075Z,16.00
2019-03-19T06:19:33.217Z,20.00
2019-03-19T06:20:36.054Z,14.00
2019-03-19T06:21:38.915Z,14.00
2019-03-19T06:22:41.787Z,16.00
2019-03-19T06:23:44.996Z,18.50
2019-03-19T06:24:47.845Z,18.50
2019-03-19T06:25:50.733Z,18.50
2019-03-19T06:26:53.714Z,20.00
2019-03-19T06:28:00.711Z,24.00
2019-03-19T06:29:01.498Z,20.00
2019-03-19T06:43:54.125Z,21.00
2019-03-19T06:44:54.447Z,20.75
2019-03-19T06:46:00.337Z,22.00
2019-03-19T06:47:03.159Z,19.00
2019-03-19T06:48:06.481Z,20.50
2019-03-19T06:49:14.852Z,18.75
2019-03-19T06:50:16.849Z,19.00
2019-03-19T06:51:19.661Z,14.50
2019-03-19T06:52:22.889Z,20.00
2019-03-19T06:53:25.774Z,16.50
2019-03-19T06:54:30.825Z,20.00
2019-03-19T06:55:33.953Z,20.00
2019-03-19T06:56:36.767Z,15.50
2019-03-19T06:57:39.691Z,15.00
2019-03-19T06:58:43.464Z,17.50
2019-03-19T06:59:47.551Z,14.50
2019-03-19T07:00:50.445Z,18.50
2019-03-19T07:01:56.891Z,17.50
2019-03-19T07:02:59.749Z,18.00
2019-03-19T07:04:02.608Z,20.00
2019-03-19T07:05:08.736Z,19.00
2019-03-19T07:06:13.856Z,25.50
2019-03-19T07:07:18.909Z,24.50
2019-03-19T07:08:22.187Z,21.50
2019-03-19T07:09:28.321Z,22.00
2019-03-19T07:10:32.324Z,23.00
2019-03-19T07:11:35.233Z,20.50
2019-03-19T07:12:38.115Z,22.00
2019-03-19T07:13:43.847Z,22.00
2019-03-19T07:14:49.690Z,20.00
2019-03-19T07:15:56.721Z,26.00
2019-03-19T07:17:01.191Z,24.50
2019-03-19T07:18:04.616Z,19.00
2019-03-19T07:19:10.231Z,22.50
2019-03-19T07:20:14.467Z,22.00
2019-03-19T07:21:17.741Z,20.00
2019-03-19T07:22:20.581Z,21.00
2019-03-19T07:23:23.448Z,22.00
2019-03-19T07:24:35.490Z,20.50
2019-03-19T07:25:38.400Z,21.00
2019-03-19T07:26:41.304Z,25.50
2019-03-19T07:27:46.015Z,22.50
2019-03-19T07:28:50.238Z,22.00
2019-03-19T07:29:53.471Z,23.50
2019-03-19T07:30:56.365Z,23.00
2019-03-19T07:31:59.209Z,23.50
2019-03-19T07:33:02.455Z,24.50
2019-03-19T07:34:05.556Z,22.00
2019-03-19T07:35:08.390Z,25.50
2019-03-19T07:36:11.279Z,22.50
2019-03-19T07:37:15.177Z,24.50
2019-03-19T07:38:18.031Z,24.00
2019-03-19T07:39:20.922Z,22.50
2019-03-19T07:40:25.898Z,30.00
2019-03-19T07:41:28.813Z,28.00
2019-03-19T07:42:31.797Z,30.50
2019-03-19T07:43:34.738Z,26.50
2019-03-19T07:44:39.207Z,28.00
2019-03-19T07:45:42.463Z,28.50
2019-03-19T07:46:46.118Z,27.00
2019-03-19T07:47:49.007Z,23.50
2019-03-19T07:48:52.370Z,29.50
2019-03-19T07:49:55.195Z,23.50
2019-03-19T07:50:58.032Z,20.00
2019-03-19T07:52:00.996Z,24.50
2019-03-19T07:53:07.104Z,24.00
2019-03-19T07:54:10.003Z,23.50
2019-03-19T07:55:13.566Z,22.00
2019-03-19T07:56:16.424Z,18.00
2019-03-19T07:57:19.265Z,22.50
2019-03-19T07:58:35.829Z,22.50
2019-03-19T07:59:29.707Z,20.50
2019-03-19T08:00:32.945Z,22.00
2019-03-19T08:01:40.067Z,23.50
2019-03-19T08:02:45.126Z,23.00
2019-03-19T08:03:48.505Z,22.00
2019-03-19T08:04:54.613Z,20.50
2019-03-19T08:05:57.794Z,22.50
2019-03-19T08:07:00.631Z,19.50
2019-03-19T08:08:10.228Z,21.00
2019-03-19T08:09:15.847Z,21.00
2019-03-19T08:10:18.783Z,23.50
2019-03-19T08:11:21.673Z,22.00
2019-03-19T08:12:25.047Z,24.00
2019-03-19T08:13:27.965Z,21.50
2019-03-19T08:14:30.856Z,23.50
2019-03-19T08:15:33.751Z,23.50
2019-03-19T08:16:36.592Z,22.00
2019-03-19T08:17:42.800Z,21.00
2019-03-19T08:18:49.697Z,20.50
2019-03-19T08:19:53.189Z,26.50
2019-03-19T08:21:01.089Z,22.50
2019-03-19T08:22:03.924Z,22.00
2019-03-19T08:23:08.970Z,18.50
2019-03-19T08:24:13.006Z,22.50
2019-03-19T08:25:27.270Z,18.50
2019-03-19T08:26:30.463Z,23.50
2019-03-19T08:27:33.402Z,22.50
2019-03-19T08:28:36.323Z,23.00
2019-03-19T08:29:39.416Z,21.50
2019-03-19T08:30:42.699Z,22.50
2019-03-19T08:31:46.005Z,24.00
2019-03-19T08:32:49.199Z,22.00
2019-03-19T08:33:52.501Z,26.50
2019-03-19T08:34:58.524Z,33.50
2019-03-19T08:36:09.427Z,29.00
2019-03-19T08:37:09.298Z,26.00
2019-03-19T08:38:12.343Z,26.50
2019-03-19T08:39:15.437Z,28.50
2019-03-19T08:40:18.318Z,26.50
2019-03-19T08:41:21.283Z,31.50
2019-03-19T08:42:26.360Z,27.50
2019-03-19T08:43:29.647Z,31.00
2019-03-19T08:44:32.567Z,30.00
2019-03-19T08:45:35.827Z,27.50
2019-03-19T08:46:38.854Z,24.00
2019-03-19T08:47:41.718Z,27.50
2019-03-19T08:48:44.844Z,22.50
2019-03-19T08:49:47.705Z,27.50
2019-03-19T08:50:50.597Z,26.00
2019-03-19T08:51:55.072Z,25.50
2019-03-19T08:52:58.684Z,23.50
2019-03-19T08:54:01.551Z,23.00
2019-03-19T08:55:06.920Z,25.75
2019-03-19T08:56:15.827Z,26.75
2019-03-19T08:57:20.120Z,25.75
2019-03-19T08:58:26.273Z,28.25
2019-03-19T08:59:33.179Z,33.50
2019-03-19T09:00:41.054Z,28.25
2019-03-19T09:01:41.574Z,24.25
2019-03-19T09:02:44.418Z,27.75
2019-03-19T09:03:50.117Z,26.00
2019-03-19T09:04:57.209Z,27.00
2019-03-19T09:06:00.460Z,27.50
2019-03-19T09:07:06.478Z,27.00
2019-03-19T09:08:12.179Z,24.50
2019-03-19T09:09:15.228Z,25.00
2019-03-19T09:10:48.163Z,22.50
2019-03-19T09:11:27.066Z,29.25
2019-03-19T09:12:30.450Z,26.50
2019-03-19T09:13:33.686Z,21.75
2019-03-19T09:14:36.568Z,27.75
2019-03-19T09:15:41.525Z,27.50
2019-03-19T09:16:47.071Z,25.00
2019-03-19T09:17:50.006Z,25.75
2019-03-19T09:18:53.419Z,23.50
2019-03-19T09:19:56.647Z,21.00
2019-03-19T09:20:59.581Z,22.50
2019-03-19T09:22:04.407Z,21.00
2019-03-19T09:23:07.773Z,23.75
2019-03-19T09:24:13.208Z,24.75
2019-03-19T09:25:16.063Z,23.25
2019-03-19T09:26:23.068Z,25.00
2019-03-19T09:27:27.738Z,23.00
2019-03-19T09:28:32.342Z,24.25
2019-03-19T09:29:35.266Z,23.25
2019-03-19T09:30:40.367Z,25.75
2019-03-19T09:31:43.225Z,27.00
2019-03-19T09:32:46.631Z,26.00
2019-03-19T09:33:49.771Z,25.00
2019-03-19T09:34:52.653Z,25.75
2019-03-19T09:36:10.222Z,25.25
2019-03-19T09:37:14.073Z,26.00
2019-03-19T09:38:16.935Z,23.75
2019-03-19T09:39:20.404Z,24.00
2019-03-19T09:40:28.424Z,21.00
2019-03-19T09:41:31.771Z,25.25
2019-03-19T09:42:35.771Z,20.25
2019-03-19T09:43:38.640Z,20.75
2019-03-19T09:44:41.700Z,18.00
2019-03-19T09:45:44.688Z,21.75
2019-03-19T09:46:47.534Z,24.25
2019-03-19T09:47:50.375Z,25.00
2019-03-19T09:48:53.501Z,23.50
2019-03-19T09:49:56.453Z,21.50
2019-03-19T09:50:59.443Z,22.25
2019-03-19T09:52:03.033Z,23.00
2019-03-19T09:53:06.436Z,18.50
2019-03-19T09:54:09.304Z,17.75
2019-03-19T09:55:12.219Z,20.00
2019-03-19T09:56:15.513Z,14.75
2019-03-19T09:57:18.401Z,17.50
2019-03-19T09:58:24.560Z,17.50
2019-03-19T09:59:27.998Z,16.75
2019-03-19T10:00:30.814Z,15.25
2019-03-19T10:01:33.760Z,17.00
2019-03-19T10:02:36.595Z,15.00
2019-03-19T10:03:39.411Z,13.00
2019-03-19T10:04:44.893Z,15.50
2019-03-19T10:05:47.783Z,16.00
2019-03-19T10:06:50.732Z,14.25
2019-03-19T10:07:55.552Z,14.00
2019-03-19T10:08:59.756Z,15.00
2019-03-19T10:10:03.056Z,15.00
2019-03-19T10:11:08.886Z,13.25
2019-03-19T10:12:12.187Z,13.75
2019-03-19T10:13:15.569Z,15.75
2019-03-19T10:14:21.244Z,16.00
2019-03-19T10:15:25.366Z,15.00
2019-03-19T10:16:28.316Z,14.50
2019-03-19T10:17:31.172Z,13.00
2019-03-19T10:18:34.033Z,13.50
2019-03-19T10:19:39.797Z,13.50
2019-03-19T10:20:43.179Z,14.75
2019-03-19T10:21:49.138Z,16.00
2019-03-19T10:22:55.431Z,14.25
2019-03-19T10:23:58.331Z,17.00
2019-03-19T10:25:02.978Z,14.75
2019-03-19T10:26:06.998Z,12.00
2019-03-19T10:27:09.867Z,11.25
2019-03-19T10:28:12.755Z,12.50
2019-03-19T10:29:37.586Z,9.50
2019-03-19T10:30:31.697Z,10.00
2019-03-19T10:31:34.987Z,10.00
2019-03-19T10:32:39.302Z,11.00
2019-03-19T10:33:42.182Z,8.75
2019-03-19T10:34:45.082Z,9.75
2019-03-19T10:35:47.894Z,10.00
2019-03-19T10:36:50.868Z,9.50
2019-03-19T10:37:53.710Z,10.00
2019-03-19T10:38:56.909Z,8.00
2019-03-19T10:39:59.727Z,9.50
2019-03-19T10:41:02.605Z,8.00
2019-03-19T10:42:08.561Z,8.50
2019-03-19T10:43:11.426Z,8.00
2019-03-19T10:44:14.736Z,6.00
2019-03-19T10:45:17.547Z,7.50
2019-03-19T10:46:22.299Z,7.00
2019-03-19T10:47:27.100Z,8.00
2019-03-19T10:48:33.276Z,7.50
2019-03-19T10:49:39.608Z,6.00
2019-03-19T10:50:42.847Z,6.00
2019-03-19T10:51:45.711Z,5.75
2019-03-19T10:52:49.165Z,6.00
2019-03-19T10:53:52.072Z,7.50
2019-03-19T10:54:54.939Z,7.50
2019-03-19T10:55:58.114Z,5.00
2019-03-19T10:57:03.440Z,6.50
2019-03-19T10:58:10.889Z,5.50
2019-03-19T10:59:26.160Z,6.00
2019-03-19T11:00:29.589Z,6.25
2019-03-19T11:01:35.492Z,6.00
2019-03-19T11:02:40.155Z,6.00
2019-03-19T11:03:43.070Z,6.00
2019-03-19T11:04:45.971Z,5.50
2019-03-19T11:05:51.834Z,5.50
2019-03-19T11:06:54.596Z,4.50
2019-03-19T11:07:57.897Z,6.00
2019-03-19T11:09:02.974Z,4.50
2019-03-19T11:10:06.919Z,4.50
2019-03-19T11:11:16.370Z,4.00
2019-03-19T11:12:19.100Z,4.75
2019-03-19T11:13:21.815Z,4.75
2019-03-19T11:14:24.930Z,3.50
2019-03-19T11:15:31.384Z,5.50
2019-03-19T11:16:35.295Z,3.50
2019-03-19T11:17:38.526Z,3.00
2019-03-19T11:18:42.013Z,4.50
2019-03-19T11:19:49.898Z,3.50
2019-03-19T11:20:54.937Z,3.50
2019-03-19T11:21:57.767Z,5.00
2019-03-19T11:23:02.956Z,3.00
2019-03-19T11:24:10.926Z,3.00
2019-03-19T11:25:16.584Z,2.00
2019-03-19T11:26:22.785Z,1.00
2019-03-19T11:27:25.977Z,3.00
2019-03-19T11:28:41.816Z,1.50
2019-03-19T11:29:44.988Z,2.50
2019-03-19T11:42:54.698Z,3.00
2019-03-19T11:44:00.380Z,2.00
2019-03-19T11:45:09.440Z,1.75
2019-03-19T11:46:12.248Z,2.75
2019-03-19T11:47:17.655Z,2.75
2019-03-19T11:48:25.850Z,1.00
2019-03-19T11:49:29.058Z,2.00
2019-03-19T11:50:34.234Z,3.00
2019-03-19T11:51:39.322Z,3.00
2019-03-19T11:52:42.111Z,1.00
2019-03-19T11:53:45.461Z,2.00
2019-03-19T11:54:53.638Z,3.00
2019-03-19T11:55:56.387Z,1.00
2019-03-19T11:56:59.150Z,1.00
2019-03-19T11:58:02.135Z,3.50
2019-03-19T11:59:05.479Z,3.25
2019-03-19T12:00:11.533Z,3.00
2019-03-19T12:01:13.412Z,2.50
2019-03-19T12:02:25.629Z,3.25
2019-03-19T12:03:23.358Z,3.00
2019-03-19T12:04:27.226Z,2.50
2019-03-19T12:05:30.095Z,1.00
2019-03-19T12:06:32.807Z,3.00
2019-03-19T12:07:39.548Z,3.00
2019-03-19T12:08:45.894Z,2.00
2019-03-19T12:09:48.854Z,4.00
2019-03-19T12:10:52.145Z,6.00
2019-03-19T12:11:58.017Z,4.00
2019-03-19T12:13:00.718Z,4.00
2019-03-19T12:14:04.257Z,3.00
2019-03-19T12:15:07.148Z,3.00
2019-03-19T12:16:10.321Z,2.00
2019-03-19T12:17:13.565Z,3.00
2019-03-19T12:18:16.459Z,3.00
2019-03-19T12:19:19.473Z,2.00
2019-03-19T12:20:25.625Z,3.25
2019-03-19T12:21:28.709Z,1.00
2019-03-19T12:22:32.937Z,3.00
2019-03-19T12:23:37.088Z,4.00
2019-03-19T12:24:39.981Z,2.00
2019-03-19T12:25:46.152Z,3.00
2019-03-19T12:26:53.688Z,3.00
2019-03-19T12:27:58.961Z,2.00
2019-03-19T12:29:07.524Z,2.00
2019-03-19T12:30:22.932Z,3.25
2019-03-19T12:31:25.141Z,3.00
2019-03-19T12:32:28.076Z,1.00
2019-03-19T12:33:40.421Z,2.50
2019-03-19T12:34:36.178Z,2.50
2019-03-19T12:35:39.087Z,3.00
2019-03-19T12:36:41.871Z,3.00
2019-03-19T12:37:45.819Z,3.00
2019-03-19T12:38:48.623Z,1.00
2019-03-19T12:39:51.526Z,4.50
2019-03-19T12:40:54.269Z,3.25
2019-03-19T12:41:57.178Z,6.00
2019-03-19T12:43:02.242Z,3.00
2019-03-19T12:44:06.589Z,5.50
2019-03-19T12:45:09.720Z,2.50
2019-03-19T12:46:12.551Z,4.00
2019-03-19T12:47:24.816Z,3.00
2019-03-19T12:48:29.795Z,3.00
2019-03-19T12:49:32.775Z,3.25
2019-03-19T12:50:38.438Z,3.00
2019-03-19T12:51:41.120Z,3.00
2019-03-19T12:52:43.918Z,3.00
2019-03-19T12:53:49.681Z,3.00
2019-03-19T12:54:52.369Z,3.00
2019-03-19T12:55:55.390Z,3.00
2019-03-19T12:56:59.575Z,3.00
2019-03-19T12:58:04.019Z,4.00
2019-03-19T12:59:07.162Z,3.00
2019-03-19T13:00:09.907Z,1.50
2019-03-19T13:01:13.565Z,3.00
2019-03-19T13:02:16.705Z,3.00
2019-03-19T13:03:19.838Z,3.00
2019-03-19T13:04:24.760Z,3.00
2019-03-19T13:05:27.528Z,2.50
2019-03-19T13:06:35.262Z,2.50
2019-03-19T13:07:39.050Z,3.00
2019-03-19T13:08:44.492Z,3.00
2019-03-19T13:09:47.852Z,1.00
2019-03-19T13:10:51.279Z,3.00
2019-03-19T13:11:54.662Z,2.75
2019-03-19T13:12:57.511Z,1.50
2019-03-19T13:14:00.812Z,3.50
2019-03-19T13:15:03.942Z,1.50
2019-03-19T13:16:08.563Z,2.25
2019-03-19T13:17:14.113Z,2.75
2019-03-19T13:18:16.994Z,3.00
2019-03-19T13:19:19.843Z,1.50
2019-03-19T13:20:23.371Z,2.75
2019-03-19T13:21:26.153Z,1.25
2019-03-19T13:22:32.058Z,2.25
2019-03-19T13:23:34.855Z,2.75
2019-03-19T13:24:38.320Z,2.25
2019-03-19T13:25:41.316Z,2.75
2019-03-19T13:26:44.272Z,2.75
2019-03-19T13:27:48.927Z,3.00
2019-03-19T13:28:55.038Z,3.00
2019-03-19T13:29:57.771Z,3.00
2019-03-19T13:31:02.670Z,3.00
2019-03-19T13:32:05.371Z,3.25
2019-03-19T13:33:08.182Z,3.00
2019-03-19T13:34:11.060Z,3.00
2019-03-19T13:35:16.839Z,3.50
2019-03-19T13:36:24.324Z,3.25
2019-03-19T13:37:27.011Z,3.25
2019-03-19T13:38:32.160Z,3.25
2019-03-19T13:39:35.051Z,3.00
2019-03-19T13:40:38.275Z,2.00
2019-03-19T13:41:43.111Z,2.00
2019-03-19T13:42:46.805Z,3.00
2019-03-19T13:43:49.756Z,1.00
2019-03-19T13:44:53.055Z,1.00
2019-03-19T13:45:58.768Z,1.00
2019-03-19T13:47:02.008Z,3.50
2019-03-19T13:48:05.926Z,2.00
2019-03-19T13:49:08.754Z,3.00
2019-03-19T13:50:14.031Z,1.00
2019-03-19T13:51:16.701Z,2.00
2019-03-19T13:52:23.083Z,1.50
2019-03-19T13:53:26.642Z,3.00
2019-03-19T13:54:36.082Z,3.00
2019-03-19T13:55:51.338Z,3.00
2019-03-19T13:56:58.408Z,2.50
2019-03-19T13:58:01.201Z,1.00
2019-03-19T13:59:04.719Z,2.50
2019-03-19T14:00:11.470Z,2.00
2019-03-19T14:01:18.816Z,2.25
2019-03-19T14:02:24.021Z,3.00
2019-03-19T14:03:28.107Z,1.50
2019-03-19T14:04:31.183Z,2.00
2019-03-19T14:05:34.339Z,2.75
2019-03-19T14:06:37.458Z,3.00
2019-03-19T14:07:40.622Z,3.00
2019-03-19T14:08:46.487Z,2.50
2019-03-19T14:09:51.909Z,3.00
2019-03-19T14:11:03.983Z,3.75
2019-03-19T14:12:06.808Z,1.50
2019-03-19T14:13:10.500Z,2.50
2019-03-19T14:14:13.236Z,1.50
2019-03-19T14:15:15.935Z,3.00